createdAt,value
2019-03-16T00:00:38.878Z,76.69
2019-03-16T00:03:10.250Z,76.81
2019-03-16T00:05:41.445Z,77.25
2019-03-16T00:08:12.647Z,77.46
2019-03-16T00:10:44.014Z,77.45
2019-03-16T00:13:16.241Z,76.95
2019-03-16T00:15:47.757Z,76.68
2019-03-16T00:18:19.054Z,76.93
2019-03-16T00:20:50.352Z,77.23
2019-03-16T00:23:21.745Z,77.83
2019-03-16T00:25:53.003Z,77.83
2019-03-16T00:28:24.367Z,77.25
2019-03-16T00:30:55.615Z,77.52
2019-03-16T00:33:26.925Z,76.28
2019-03-16T00:35:58.243Z,76.06
2019-03-16T00:38:29.537Z,76.92
2019-03-16T00:41:00.783Z,77.48
2019-03-16T00:43:32.115Z,76.84
2019-03-16T00:46:03.510Z,77.02
2019-03-16T00:48:34.834Z,76.60
2019-03-16T00:51:06.255Z,77.23
2019-03-16T00:53:37.522Z,76.70
2019-03-16T00:56:08.910Z,76.54
2019-03-16T00:58:40.357Z,77.60
2019-03-16T01:01:11.542Z,77.26
2019-03-16T01:03:42.731Z,77.21
2019-03-16T01:06:14.128Z,78.01
2019-03-16T01:08:45.400Z,76.43
2019-03-16T01:11:16.718Z,77.28
2019-03-16T01:13:47.988Z,77.69
2019-03-16T01:16:19.257Z,77.42
2019-03-16T01:18:50.587Z,77.58
2019-03-16T01:21:21.932Z,77.97
2019-03-16T01:23:53.275Z,77.67
2019-03-16T01:26:24.630Z,77.64
2019-03-16T01:28:55.956Z,78.05
2019-03-16T01:31:27.297Z,77.71
2019-03-16T01:33:58.943Z,77.85
2019-03-16T01:36:30.349Z,77.32
2019-03-16T01:39:01.652Z,77.36
2019-03-16T01:41:34.647Z,78.18
2019-03-16T01:44:05.971Z,78.14
2019-03-16T01:46:37.308Z,77.94
2019-03-16T01:49:08.700Z,78.52
2019-03-16T01:51:40.060Z,77.72
2019-03-16T01:54:11.458Z,77.81
2019-03-16T01:56:42.781Z,78.83
2019-03-16T01:59:14.100Z,78.59
2019-03-16T02:01:45.470Z,77.79
2019-03-16T02:04:16.793Z,77.89
2019-03-16T02:06:48.112Z,77.96
2019-03-16T02:09:19.471Z,78.25
2019-03-16T02:11:50.849Z,77.91
2019-03-16T02:14:22.163Z,78.70
2019-03-16T02:16:53.537Z,78.06
2019-03-16T02:19:24.823Z,77.84
2019-03-16T02:21:55.990Z,77.23
2019-03-16T02:24:27.303Z,77.40
2019-03-16T02:26:58.603Z,78.42
2019-03-16T02:29:29.987Z,78.84
2019-03-16T02:32:01.387Z,78.26
2019-03-16T02:34:32.740Z,78.69
2019-03-16T02:37:04.052Z,78.24
2019-03-16T02:39:35.415Z,79.18
2019-03-16T02:42:06.730Z,78.40
2019-03-16T02:44:38.030Z,79.01
2019-03-16T02:47:09.266Z,79.18
2019-03-16T02:49:40.610Z,78.75
2019-03-16T02:52:12.031Z,78.50
2019-03-16T02:54:43.445Z,79.37
2019-03-16T02:57:14.677Z,79.09
2019-03-16T02:59:45.927Z,79.03
2019-03-16T03:02:17.240Z,79.15
2019-03-16T03:04:48.608Z,79.07
2019-03-16T03:07:19.881Z,78.85
2019-03-16T03:09:51.207Z,78.59
2019-03-16T03:12:22.610Z,79.07
2019-03-16T03:14:54.078Z,79.23
2019-03-16T03:17:25.307Z,79.99
2019-03-16T03:19:56.622Z,80.16
2019-03-16T03:22:27.985Z,79.35
2019-03-16T03:24:59.339Z,79.22
2019-03-16T03:27:30.675Z,78.94
2019-03-16T03:30:02.169Z,80.68
2019-03-16T03:32:33.529Z,79.50
2019-03-16T03:35:06.150Z,79.43
2019-03-16T03:37:37.503Z,79.26
2019-03-16T03:40:10.294Z,80.85
2019-03-16T03:42:41.619Z,80.14
2019-03-16T03:45:14.198Z,79.65
2019-03-16T03:47:44.871Z,80.00
2019-03-16T03:50:16.188Z,79.93
2019-03-16T03:52:47.505Z,79.48
2019-03-16T03:55:18.831Z,80.24
2019-03-16T03:57:50.159Z,80.56
2019-03-16T04:00:21.575Z,80.95
2019-03-16T04:02:52.732Z,80.43
2019-03-16T04:05:24.143Z,79.74
2019-03-16T04:07:56.519Z,80.35
2019-03-16T04:10:27.812Z,80.07
2019-03-16T04:12:59.123Z,80.17
2019-03-16T04:15:30.377Z,81.38
2019-03-16T04:18:02.178Z,81.36
2019-03-16T04:20:33.434Z,80.17
2019-03-16T04:23:04.760Z,80.22
2019-03-16T04:25:35.901Z,81.05
2019-03-16T04:28:07.195Z,80.87
2019-03-16T04:30:38.429Z,80.90
2019-03-16T04:33:10.125Z,80.85
2019-03-16T04:35:41.327Z,81.54
2019-03-16T04:38:12.623Z,81.68
2019-03-16T04:40:44.803Z,81.48
2019-03-16T04:43:16.064Z,81.62
2019-03-16T04:45:47.407Z,81.62
2019-03-16T04:48:18.721Z,81.04
2019-03-16T04:50:50.230Z,81.94
2019-03-16T04:53:22.095Z,81.34
2019-03-16T04:55:53.423Z,81.77
2019-03-16T04:58:24.761Z,82.83
2019-03-16T05:00:55.994Z,82.74
2019-03-16T05:03:27.333Z,81.41
2019-03-16T05:05:58.601Z,81.97
2019-03-16T05:08:29.894Z,81.11
2019-03-16T05:11:01.201Z,81.10
2019-03-16T05:13:32.572Z,79.76
2019-03-16T05:16:03.875Z,79.83
2019-03-16T05:18:35.128Z,79.27
2019-03-16T05:21:06.450Z,79.72
2019-03-16T05:23:37.883Z,78.68
2019-03-16T05:26:09.296Z,77.73
2019-03-16T05:28:40.684Z,77.31
2019-03-16T05:31:11.928Z,77.20
2019-03-16T05:33:43.084Z,76.70
2019-03-16T05:36:14.450Z,75.82
2019-03-16T05:38:45.810Z,75.78
2019-03-16T05:41:17.080Z,75.86
2019-03-16T05:43:48.455Z,75.65
2019-03-16T05:46:19.852Z,74.62
2019-03-16T05:48:51.142Z,74.95
2019-03-16T05:51:22.473Z,74.73
2019-03-16T05:53:53.840Z,73.43
2019-03-16T05:56:25.178Z,73.88
2019-03-16T05:58:56.551Z,73.79
2019-03-16T06:01:27.792Z,72.74
2019-03-16T06:03:59.229Z,72.64
2019-03-16T06:06:30.561Z,72.81
2019-03-16T06:09:01.952Z,73.22
2019-03-16T06:11:33.431Z,72.26
2019-03-16T06:14:04.867Z,71.99
2019-03-16T06:16:36.163Z,71.90
2019-03-16T06:19:07.586Z,71.15
2019-03-16T06:21:38.939Z,70.68
2019-03-16T06:24:10.293Z,70.25
2019-03-16T06:26:41.705Z,70.22
2019-03-16T06:29:13.144Z,69.54
2019-03-16T06:31:44.567Z,68.69
2019-03-16T06:34:15.964Z,68.49
2019-03-16T06:36:47.358Z,67.90
2019-03-16T06:39:18.747Z,67.36
2019-03-16T06:41:50.012Z,67.62
2019-03-16T06:44:21.274Z,66.24
2019-03-16T06:46:53.176Z,65.27
2019-03-16T06:49:24.486Z,65.50
2019-03-16T06:51:55.841Z,65.52
2019-03-16T06:54:27.269Z,64.73
2019-03-16T06:56:58.647Z,64.55
2019-03-16T06:59:29.913Z,63.62
2019-03-16T07:02:01.253Z,64.45
2019-03-16T07:04:32.669Z,64.63
2019-03-16T07:07:04.096Z,64.46
2019-03-16T07:09:35.417Z,64.43
2019-03-16T07:12:06.710Z,63.49
2019-03-16T07:14:38.083Z,63.12
2019-03-16T07:17:09.311Z,62.78
2019-03-16T07:19:40.696Z,62.62
2019-03-16T07:22:12.063Z,62.35
2019-03-16T07:24:43.460Z,61.72
2019-03-16T07:27:25.630Z,60.54
2019-03-16T07:29:47.844Z,59.63
2019-03-16T07:32:19.182Z,59.16
2019-03-16T07:34:50.489Z,58.41
2019-03-16T07:37:21.798Z,58.08
2019-03-16T07:39:53.082Z,57.42
2019-03-16T07:42:24.429Z,57.59
2019-03-16T07:45:07.467Z,53.68
2019-03-16T07:47:28.867Z,52.63
2019-03-16T07:50:00.389Z,51.60
2019-03-16T07:52:31.796Z,52.38
2019-03-16T07:55:05.016Z,51.55
2019-03-16T07:57:40.422Z,49.09
2019-03-16T08:00:11.275Z,47.54
2019-03-16T08:02:42.479Z,47.29
2019-03-16T08:05:18.511Z,48.08
2019-03-16T08:07:46.842Z,48.19
2019-03-16T08:10:18.159Z,47.41
2019-03-16T08:12:49.496Z,47.37
2019-03-16T08:15:20.870Z,46.98
2019-03-16T08:17:52.160Z,46.35
2019-03-16T08:20:23.535Z,45.54
2019-03-16T08:22:54.852Z,44.22
2019-03-16T08:25:26.281Z,45.08
2019-03-16T08:27:57.449Z,44.47
2019-03-16T08:30:28.473Z,44.34
2019-03-16T08:32:59.810Z,43.97
2019-03-16T08:35:32.252Z,43.55
2019-03-16T08:38:03.454Z,42.83
2019-03-16T08:40:34.848Z,41.87
2019-03-16T08:43:07.302Z,41.29
2019-03-16T08:45:38.702Z,41.45
2019-03-16T08:48:22.215Z,42.22
2019-03-16T08:50:43.248Z,42.61
2019-03-16T08:53:15.238Z,42.21
2019-03-16T08:55:46.762Z,42.12
2019-03-16T08:58:18.081Z,41.78
2019-03-16T09:00:49.399Z,41.17
2019-03-16T09:03:20.782Z,42.02
2019-03-16T09:05:52.246Z,41.94
2019-03-16T09:08:23.625Z,40.08
2019-03-16T09:10:55.165Z,40.97
2019-03-16T09:13:26.557Z,40.19
2019-03-16T09:15:57.963Z,40.63
2019-03-16T09:18:29.362Z,40.46
2019-03-16T09:21:00.715Z,40.22
2019-03-16T09:23:32.104Z,40.09
2019-03-16T09:26:03.504Z,41.27
2019-03-16T09:28:34.809Z,40.99
2019-03-16T09:31:06.167Z,40.34
2019-03-16T09:33:37.550Z,39.55
2019-03-16T09:36:08.872Z,38.96
2019-03-16T09:38:40.187Z,38.72
2019-03-16T09:41:11.590Z,38.98
2019-03-16T09:43:42.858Z,38.67
2019-03-16T09:46:14.226Z,38.12
2019-03-16T09:48:45.656Z,38.38
2019-03-16T09:51:17.091Z,37.75
2019-03-16T09:53:48.446Z,38.04
2019-03-16T09:56:19.789Z,38.22
2019-03-16T09:58:50.897Z,36.87
2019-03-16T10:01:22.215Z,37.86
2019-03-16T10:03:53.682Z,38.10
2019-03-16T10:06:25.017Z,37.57
2019-03-16T10:08:56.320Z,38.29
2019-03-16T10:11:27.592Z,38.09
2019-03-16T10:13:58.726Z,37.16
2019-03-16T10:16:30.214Z,36.80
2019-03-16T10:19:01.524Z,37.18
2019-03-16T10:21:32.788Z,36.71
2019-03-16T10:24:04.061Z,37.20
2019-03-16T10:26:37.560Z,37.21
2019-03-16T10:29:08.463Z,36.54
2019-03-16T10:31:39.722Z,37.37
2019-03-16T10:34:10.997Z,37.23
2019-03-16T10:36:42.356Z,37.43
2019-03-16T10:39:13.696Z,36.87
2019-03-16T10:41:45.131Z,37.19
2019-03-16T10:44:16.455Z,37.11
2019-03-16T10:46:47.779Z,37.04
2019-03-16T10:49:19.052Z,36.51
2019-03-16T10:51:50.461Z,36.48
2019-03-16T10:54:21.699Z,36.66
2019-03-16T10:56:53.123Z,36.46
2019-03-16T10:59:24.537Z,36.26
2019-03-16T11:01:55.970Z,35.32
2019-03-16T11:04:28.266Z,35.20
2019-03-16T11:06:59.650Z,36.02
2019-03-16T11:09:31.049Z,35.66
2019-03-16T11:12:02.587Z,35.37
2019-03-16T11:14:33.989Z,35.52
2019-03-16T11:17:05.343Z,34.41
2019-03-16T11:19:36.742Z,35.06
2019-03-16T11:22:08.130Z,34.87
2019-03-16T11:24:39.476Z,35.25
2019-03-16T11:27:10.724Z,34.85
2019-03-16T11:29:42.089Z,34.58
2019-03-16T11:32:13.462Z,33.40
2019-03-16T11:34:45.212Z,33.40
2019-03-16T11:37:16.789Z,33.61
2019-03-16T11:39:48.164Z,33.85
2019-03-16T11:42:19.474Z,33.70
2019-03-16T11:44:50.732Z,33.67
2019-03-16T11:47:21.989Z,33.86
2019-03-16T11:49:53.300Z,34.05
2019-03-16T11:52:24.687Z,33.20
2019-03-16T11:54:56.067Z,32.54
2019-03-16T11:57:27.483Z,32.68
2019-03-16T11:59:58.712Z,32.39
2019-03-16T12:02:30.076Z,32.20
2019-03-16T12:05:02.258Z,32.09
2019-03-16T12:07:33.703Z,32.53
2019-03-16T12:10:07.582Z,32.55
2019-03-16T12:12:38.859Z,31.91
2019-03-16T12:15:11.611Z,32.18
2019-03-16T12:17:43.016Z,31.99
2019-03-16T12:20:18.707Z,31.35
2019-03-16T12:22:50.263Z,32.07
2019-03-16T12:25:21.614Z,32.13
2019-03-16T12:27:52.963Z,33.50
2019-03-16T12:30:24.326Z,33.99
2019-03-16T12:32:55.610Z,32.98
2019-03-16T12:35:26.980Z,33.19
2019-03-16T12:37:58.301Z,33.47
2019-03-16T12:40:29.711Z,32.93
2019-03-16T12:43:01.059Z,33.55
2019-03-16T12:45:32.367Z,33.59
2019-03-16T12:48:03.681Z,32.71
2019-03-16T12:50:34.579Z,33.37
2019-03-16T12:53:05.889Z,33.74
2019-03-16T12:55:37.188Z,33.68
2019-03-16T12:58:08.454Z,33.51
2019-03-16T13:00:39.837Z,33.85
2019-03-16T13:03:11.229Z,34.28
2019-03-16T13:05:42.565Z,34.34
2019-03-16T13:08:13.885Z,33.93
2019-03-16T13:10:45.191Z,34.07
2019-03-16T13:13:16.582Z,33.94
2019-03-16T13:15:47.991Z,33.60
2019-03-16T13:18:19.347Z,34.08
2019-03-16T13:20:50.726Z,33.99
2019-03-16T13:23:21.914Z,34.61
2019-03-16T13:25:53.257Z,34.48
2019-03-16T13:28:24.553Z,34.39
2019-03-16T13:30:56.313Z,35.12
2019-03-16T13:33:27.665Z,35.07
2019-03-16T13:35:59.032Z,35.21
2019-03-16T13:38:30.414Z,35.19
2019-03-16T13:41:01.719Z,35.14
2019-03-16T13:43:32.961Z,34.99
2019-03-16T13:46:04.321Z,35.52
2019-03-16T13:48:35.739Z,35.17
2019-03-16T13:51:07.070Z,35.32
2019-03-16T13:53:38.365Z,35.43
2019-03-16T13:56:09.966Z,35.64
2019-03-16T13:58:41.216Z,35.82
2019-03-16T14:01:12.487Z,36.16
2019-03-16T14:03:43.870Z,36.24
2019-03-16T14:06:15.369Z,37.17
2019-03-16T14:08:46.706Z,37.17
2019-03-16T14:11:18.076Z,37.54
2019-03-16T14:13:49.437Z,37.66
2019-03-16T14:16:21.096Z,38.04
2019-03-16T14:18:52.283Z,38.44
2019-03-16T14:21:23.620Z,39.25
2019-03-16T14:23:56.087Z,39.25
2019-03-16T14:26:27.388Z,39.36
2019-03-16T14:28:58.735Z,39.47
2019-03-16T14:31:30.046Z,39.88
2019-03-16T14:34:01.675Z,40.41
2019-03-16T14:36:32.926Z,40.38
2019-03-16T14:39:06.424Z,40.74
2019-03-16T14:41:37.675Z,41.31
2019-03-16T14:44:09.156Z,40.79
2019-03-16T14:46:40.506Z,41.34
2019-03-16T14:49:11.845Z,41.11
2019-03-16T14:51:43.137Z,41.97
2019-03-16T14:54:14.459Z,42.36
2019-03-16T14:56:45.936Z,43.39
2019-03-16T14:59:17.190Z,43.38
2019-03-16T15:01:48.572Z,43.13
2019-03-16T15:04:19.866Z,42.39
2019-03-16T15:06:51.236Z,42.28
2019-03-16T15:09:22.612Z,42.52
2019-03-16T15:11:53.979Z,43.10
2019-03-16T15:14:25.286Z,43.24
2019-03-16T15:16:56.550Z,43.49
2019-03-16T15:19:27.874Z,43.43
2019-03-16T15:21:59.285Z,43.84
2019-03-16T15:24:30.549Z,44.21
2019-03-16T15:27:01.901Z,44.63
2019-03-16T15:29:33.208Z,44.77
2019-03-16T15:32:04.448Z,44.14
2019-03-16T15:34:35.774Z,44.09
2019-03-16T15:37:07.214Z,44.28
2019-03-16T15:39:38.539Z,44.46
2019-03-16T15:42:10.759Z,44.81
2019-03-16T15:44:42.804Z,44.63
2019-03-16T15:47:14.100Z,45.01
2019-03-16T15:49:45.377Z,44.88
2019-03-16T15:52:16.817Z,45.36
2019-03-16T15:54:48.077Z,45.55
2019-03-16T15:57:19.397Z,45.57
2019-03-16T15:59:50.712Z,45.70
2019-03-16T16:02:21.960Z,46.05
2019-03-16T16:04:53.208Z,46.35
2019-03-16T16:07:24.552Z,46.52
2019-03-16T16:09:55.840Z,46.71
2019-03-16T16:12:27.033Z,47.12
2019-03-16T16:14:58.386Z,47.38
2019-03-16T16:17:29.931Z,47.45
2019-03-16T16:20:01.282Z,47.54
2019-03-16T16:22:32.673Z,47.98
2019-03-16T16:25:04.632Z,48.48
2019-03-16T16:27:35.296Z,48.84
2019-03-16T16:30:15.416Z,49.18
2019-03-16T16:32:46.851Z,48.94
2019-03-16T16:35:20.463Z,49.03
2019-03-16T16:37:51.815Z,49.15
2019-03-16T16:40:23.187Z,48.93
2019-03-16T16:42:54.583Z,49.18
2019-03-16T16:45:25.864Z,49.11
2019-03-16T16:47:57.121Z,49.41
2019-03-16T16:50:28.327Z,49.52
2019-03-16T16:52:59.690Z,49.88
2019-03-16T16:55:31.079Z,49.71
2019-03-16T16:58:02.467Z,49.78
2019-03-16T17:00:34.021Z,50.12
2019-03-16T17:03:05.861Z,50.42
2019-03-16T17:05:37.312Z,50.69
2019-03-16T17:08:08.649Z,52.95
2019-03-16T17:10:40.055Z,54.10
2019-03-16T17:13:11.457Z,55.01
2019-03-16T17:15:42.794Z,56.74
2019-03-16T17:18:14.213Z,57.83
2019-03-16T17:20:45.635Z,58.68
2019-03-16T17:23:16.922Z,59.03
2019-03-16T17:25:49.384Z,59.67
2019-03-16T17:28:20.746Z,61.29
2019-03-16T17:30:52.097Z,60.98
2019-03-16T17:33:23.452Z,60.87
2019-03-16T17:35:54.885Z,62.42
2019-03-16T17:38:26.245Z,62.42
2019-03-16T17:40:57.526Z,63.71
2019-03-16T17:43:29.007Z,65.01
2019-03-16T17:46:00.424Z,66.81
2019-03-16T17:48:31.670Z,67.34
2019-03-16T17:51:03.040Z,69.34
2019-03-16T17:53:34.436Z,69.60
2019-03-16T17:56:05.758Z,71.43
2019-03-16T17:58:37.066Z,73.00
2019-03-16T18:01:08.434Z,73.94
2019-03-16T18:03:39.758Z,74.49
2019-03-16T18:06:11.001Z,76.23
2019-03-16T18:08:42.313Z,77.12
2019-03-16T18:11:13.585Z,77.74
2019-03-16T18:13:45.509Z,78.66
2019-03-16T18:16:16.762Z,78.28
2019-03-16T18:18:48.143Z,79.90
2019-03-16T18:21:19.405Z,79.61
2019-03-16T18:23:50.798Z,79.99
2019-03-16T18:26:22.184Z,79.96
2019-03-16T18:28:53.543Z,80.12
2019-03-16T18:31:24.895Z,80.08
2019-03-16T18:33:56.123Z,80.48
2019-03-16T18:36:27.502Z,79.91
2019-03-16T18:38:58.544Z,79.49
2019-03-16T18:41:29.802Z,79.93
2019-03-16T18:44:01.142Z,80.15
2019-03-16T18:46:32.428Z,79.75
2019-03-16T18:49:03.686Z,79.69
2019-03-16T18:51:35.000Z,79.95
2019-03-16T18:54:06.256Z,80.38
2019-03-16T18:56:37.575Z,80.42
2019-03-16T18:59:09.344Z,80.56
2019-03-16T19:01:41.023Z,81.04
2019-03-16T19:04:12.318Z,80.87
2019-03-16T19:06:43.632Z,81.65
2019-03-16T19:09:14.925Z,81.47
2019-03-16T19:11:46.243Z,83.51
2019-03-16T19:14:17.623Z,81.97
2019-03-16T19:16:48.893Z,83.02
2019-03-16T19:19:20.180Z,82.90
2019-03-16T19:21:51.529Z,82.04
2019-03-16T19:24:23.943Z,81.63
2019-03-16T19:26:55.284Z,81.39
2019-03-16T19:29:26.661Z,82.39
2019-03-16T19:31:58.035Z,81.74
2019-03-16T19:34:29.369Z,82.64
2019-03-16T19:37:00.568Z,82.33
2019-03-16T19:39:31.929Z,82.86
2019-03-16T19:42:03.229Z,82.66
2019-03-16T19:44:34.606Z,82.56
2019-03-16T19:47:05.966Z,83.27
2019-03-16T19:49:37.268Z,82.48
2019-03-16T19:52:08.667Z,82.82
2019-03-16T19:54:39.984Z,83.22
2019-03-16T19:57:16.244Z,83.65
2019-03-16T19:59:44.322Z,83.22
2019-03-16T20:02:15.669Z,83.37
2019-03-16T20:04:47.118Z,83.78
2019-03-16T20:07:19.588Z,83.58
2019-03-16T20:09:51.459Z,83.54
2019-03-16T20:12:22.797Z,83.65
2019-03-16T20:14:54.124Z,83.31
2019-03-16T20:17:25.422Z,84.45
2019-03-16T20:19:56.874Z,85.26
2019-03-16T20:22:28.301Z,84.51
2019-03-16T20:24:59.619Z,83.69
2019-03-16T20:27:31.046Z,83.69
2019-03-16T20:30:02.421Z,84.08
2019-03-16T20:32:35.037Z,84.06
2019-03-16T20:35:08.178Z,83.88
2019-03-16T20:37:39.564Z,84.26
2019-03-16T20:40:15.286Z,84.77
2019-03-16T20:42:46.600Z,84.18
2019-03-16T20:45:18.154Z,84.38
2019-03-16T20:47:49.486Z,83.45
2019-03-16T20:50:21.044Z,83.70
2019-03-16T20:52:52.396Z,82.49
2019-03-16T20:55:23.650Z,81.75
2019-03-16T20:57:55.046Z,81.09
2019-03-16T21:00:26.423Z,81.34
2019-03-16T21:02:57.801Z,80.86
2019-03-16T21:05:29.170Z,81.33
2019-03-16T21:08:00.544Z,81.51
2019-03-16T21:10:31.926Z,81.04
2019-03-16T21:13:03.271Z,81.01
2019-03-16T21:15:34.662Z,81.06
2019-03-16T21:18:06.031Z,81.53
2019-03-16T21:20:37.216Z,81.98
2019-03-16T21:23:08.604Z,82.17
2019-03-16T21:25:39.999Z,81.71
2019-03-16T21:28:11.330Z,82.37
2019-03-16T21:30:42.655Z,82.04
2019-03-16T21:33:15.058Z,82.30
2019-03-16T21:35:46.363Z,82.42
2019-03-16T21:38:17.832Z,82.29
2019-03-16T21:40:49.279Z,82.03
2019-03-16T21:43:20.683Z,82.62
2019-03-16T21:45:51.919Z,82.49
2019-03-16T21:48:23.351Z,81.98
2019-03-16T21:50:54.626Z,82.28
2019-03-16T21:53:26.015Z,82.31
2019-03-16T21:55:57.422Z,82.33
2019-03-16T21:58:28.808Z,82.65
2019-03-16T22:01:00.193Z,82.66
2019-03-16T22:03:41.556Z,82.80
2019-03-16T22:06:04.593Z,83.10
2019-03-16T22:08:35.876Z,83.45
2019-03-16T22:11:07.270Z,83.04
2019-03-16T22:13:39.877Z,82.74
2019-03-16T22:16:11.925Z,83.15
2019-03-16T22:18:43.563Z,82.90
2019-03-16T22:21:14.933Z,83.10
2019-03-16T22:23:46.259Z,83.47
2019-03-16T22:26:17.567Z,83.38
2019-03-16T22:28:48.808Z,83.14
2019-03-16T22:31:20.127Z,83.18
2019-03-16T22:33:54.752Z,83.14
2019-03-16T22:36:25.628Z,83.47
2019-03-16T22:38:56.883Z,84.16
2019-03-16T22:41:28.230Z,84.24
2019-03-16T22:43:59.494Z,83.38
2019-03-16T22:46:30.810Z,83.23
2019-03-16T22:49:02.089Z,82.88
2019-03-16T22:51:33.300Z,83.64
2019-03-16T22:54:04.564Z,83.74
2019-03-16T22:56:35.862Z,83.45
2019-03-16T22:59:07.257Z,83.24
2019-03-16T23:01:38.564Z,84.12
2019-03-16T23:04:09.986Z,84.10
2019-03-16T23:06:41.408Z,84.08
2019-03-16T23:09:12.790Z,84.10
2019-03-16T23:11:44.190Z,83.49
2019-03-16T23:14:15.583Z,83.51
2019-03-16T23:16:48.228Z,83.23
2019-03-16T23:19:19.623Z,83.07
2019-03-16T23:21:50.944Z,83.05
2019-03-16T23:24:22.271Z,83.60
2019-03-16T23:26:53.500Z,82.97
2019-03-16T23:29:24.734Z,82.90
2019-03-16T23:31:56.137Z,82.87
2019-03-16T23:34:27.515Z,82.70
2019-03-16T23:37:00.003Z,82.69
2019-03-16T23:39:31.255Z,82.81
2019-03-16T23:42:02.652Z,83.38
2019-03-16T23:44:34.073Z,83.71
2019-03-16T23:47:05.789Z,83.32
2019-03-16T23:49:38.093Z,83.49
2019-03-16T23:52:09.472Z,83.22
2019-03-16T23:54:40.738Z,83.16
2019-03-16T23:57:12.064Z,83.59
2019-03-16T23:59:43.593Z,83.74
